sensor_id;sensor_type;location;lat;lon;timestamp;pressure;altitude;pressure_sealevel;temperature;humidity
62103;BME280;48077;48.104;11.702;2022-10-16T00:00:37;95565.25;;;10.55;100.00
62103;BME280;48077;48.104;11.702;2022-10-16T00:03:02;95557.25;;;10.55;100.00
62103;BME280;48077;48.104;11.702;2022-10-16T00:05:27;95560.59;;;10.50;100.00
62103;BME280;48077;48.104;11.702;2022-10-16T00:07:50;95541.00;;;10.45;100.00
62103;BME280;48077;48.104;11.702;2022-10-16T00:10:14;95536.59;;;10.39;100.00
62103;BME280;48077;48.104;11.702;2022-10-16T00:12:37;95553.97;;;10.41;100.00
62103;BME280;48077;48.104;11.702;2022-10-16T00:15:00;95542.03;;;10.32;100.00
62103;BME280;48077;48.104;11.702;2022-10-16T00:17:24;95553.72;;;10.31;100.00
62103;BME280;48077;48.104;11.702;2022-10-16T00:19:47;95559.28;;;10.29;100.00
62103;BME280;48077;48.104;11.702;2022-10-16T00:22:10;95556.00;;;10.27;100.00
62103;BME280;48077;48.104;11.702;2022-10-16T00:24:34;95557.50;;;10.23;100.00
62103;BME280;48077;48.104;11.702;2022-10-16T00:26:57;95547.19;;;10.15;100.00
62103;BME280;48077;48.104;11.702;2022-10-16T00:29:21;95573.16;;;10.20;100.00
62103;BME280;48077;48.104;11.702;2022-10-16T00:31:44;95565.16;;;10.20;100.00
62103;BME280;48077;48.104;11.702;2022-10-16T00:34:07;95552.03;;;10.18;100.00
62103;BME280;48077;48.104;11.702;2022-10-16T00:36:31;95564.94;;;10.21;100.00
62103;BME280;48077;48.104;11.702;2022-10-16T00:38:57;95565.25;;;10.13;100.00
62103;BME280;48077;48.104;11.702;2022-10-16T00:41:24;95570.69;;;10.18;100.00
62103;BME280;48077;48.104;11.702;2022-10-16T00:43:49;95572.78;;;10.16;100.00
62103;BME280;48077;48.104;11.702;2022-10-16T00:48:45;95568.50;;;10.15;100.00
62103;BME280;48077;48.104;11.702;2022-10-16T00:51:11;95562.38;;;10.15;100.00
62103;BME280;48077;48.104;11.702;2022-10-16T00:53:35;95550.59;;;10.04;100.00
62103;BME280;48077;48.104;11.702;2022-10-16T00:55:58;95552.94;;;10.12;100.00
62103;BME280;48077;48.104;11.702;2022-10-16T00:58:22;95545.66;;;10.07;100.00
62103;BME280;48077;48.104;11.702;2022-10-16T01:00:45;95567.13;;;10.12;100.00
62103;BME280;48077;48.104;11.702;2022-10-16T01:08:57;95568.81;;;10.07;100.00
62103;BME280;48077;48.104;11.702;2022-10-16T01:11:35;95565.09;;;10.08;100.00
62103;BME280;48077;48.104;11.702;2022-10-16T01:14:08;95572.28;;;10.07;100.00
62103;BME280;48077;48.104;11.702;2022-10-16T01:16:40;95565.22;;;10.01;100.00
62103;BME280;48077;48.104;11.702;2022-10-16T01:19:19;95574.16;;;10.07;100.00
62103;BME280;48077;48.104;11.702;2022-10-16T01:21:45;95580.75;;;10.04;100.00
62103;BME280;48077;48.104;11.702;2022-10-16T01:26:49;95584.31;;;9.98;100.00
62103;BME280;48077;48.104;11.702;2022-10-16T01:29:18;95576.75;;;9.83;100.00
62103;BME280;48077;48.104;11.702;2022-10-16T01:31:48;95578.81;;;9.81;100.00
62103;BME280;48077;48.104;11.702;2022-10-16T01:34:16;95587.75;;;9.87;100.00
62103;BME280;48077;48.104;11.702;2022-10-16T01:36:51;95585.66;;;9.89;100.00
62103;BME280;48077;48.104;11.702;2022-10-16T01:39:20;95585.22;;;9.92;100.00
62103;BME280;48077;48.104;11.702;2022-10-16T01:41:49;95579.53;;;9.88;100.00
62103;BME280;48077;48.104;11.702;2022-10-16T01:44:21;95582.78;;;9.90;100.00
62103;BME280;48077;48.104;11.702;2022-10-16T01:46:50;95585.66;;;9.89;100.00
62103;BME280;48077;48.104;11.702;2022-10-16T01:49:15;95588.78;;;9.86;100.00
62103;BME280;48077;48.104;11.702;2022-10-16T01:51:41;95588.22;;;9.84;100.00
62103;BME280;48077;48.104;11.702;2022-10-16T01:54:08;95589.22;;;9.83;100.00
62103;BME280;48077;48.104;11.702;2022-10-16T01:56:32;95593.53;;;9.84;100.00
62103;BME280;48077;48.104;11.702;2022-10-16T01:59:00;95586.34;;;9.84;100.00
62103;BME280;48077;48.104;11.702;2022-10-16T02:01:26;95581.72;;;9.80;100.00
62103;BME280;48077;48.104;11.702;2022-10-16T02:03:54;95580.81;;;9.86;100.00
62103;BME280;48077;48.104;11.702;2022-10-16T02:06:20;95573.84;;;9.85;100.00
62103;BME280;48077;48.104;11.702;2022-10-16T02:08:43;95581.38;;;9.88;100.00
62103;BME280;48077;48.104;11.702;2022-10-16T02:11:07;95579.53;;;9.88;100.00
62103;BME280;48077;48.104;11.702;2022-10-16T02:16:01;95580.56;;;9.87;100.00
62103;BME280;48077;48.104;11.702;2022-10-16T02:18:25;95568.97;;;9.82;100.00
62103;BME280;48077;48.104;11.702;2022-10-16T02:20:56;95570.75;;;9.88;100.00
62103;BME280;48077;48.104;11.702;2022-10-16T02:23:30;95568.88;;;9.88;100.00
62103;BME280;48077;48.104;11.702;2022-10-16T02:25:58;95564.34;;;9.89;100.00
62103;BME280;48077;48.104;11.702;2022-10-16T02:28:28;95565.84;;;9.85;100.00
62103;BME280;48077;48.104;11.702;2022-10-16T02:30:58;95580.81;;;9.98;100.00
62103;BME280;48077;48.104;11.702;2022-10-16T02:33:24;95566.22;;;9.88;100.00
62103;BME280;48077;48.104;11.702;2022-10-16T02:35:49;95583.28;;;9.99;100.00
62103;BME280;48077;48.104;11.702;2022-10-16T02:38:14;95582.47;;;9.99;100.00
62103;BME280;48077;48.104;11.702;2022-10-16T02:40:38;95576.56;;;9.97;100.00
62103;BME280;48077;48.104;11.702;2022-10-16T02:43:04;95583.28;;;9.99;100.00
62103;BME280;48077;48.104;11.702;2022-10-16T02:45:28;95564.50;;;9.94;100.00
62103;BME280;48077;48.104;11.702;2022-10-16T02:47:52;95581.19;;;10.01;100.00
62103;BME280;48077;48.104;11.702;2022-10-16T02:50:15;95576.91;;;10.00;100.00
62103;BME280;48077;48.104;11.702;2022-10-16T02:52:39;95575.66;;;10.03;100.00
62103;BME280;48077;48.104;11.702;2022-10-16T02:55:02;95578.31;;;10.03;100.00
62103;BME280;48077;48.104;11.702;2022-10-16T02:57:26;95583.06;;;10.01;100.00
62103;BME280;48077;48.104;11.702;2022-10-16T02:59:49;95577.13;;;9.99;100.00
62103;BME280;48077;48.104;11.702;2022-10-16T03:02:13;95578.75;;;10.00;100.00
62103;BME280;48077;48.104;11.702;2022-10-16T03:04:36;95590.47;;;9.99;100.00
62103;BME280;48077;48.104;11.702;2022-10-16T03:07:00;95596.59;;;9.99;100.00
62103;BME280;48077;48.104;11.702;2022-10-16T03:09:23;95578.75;;;10.00;100.00
62103;BME280;48077;48.104;11.702;2022-10-16T03:11:47;95581.06;;;9.96;100.00
62103;BME280;48077;48.104;11.702;2022-10-16T03:14:10;95584.75;;;9.95;100.00
62103;BME280;48077;48.104;11.702;2022-10-16T03:16:33;95585.44;;;9.90;100.00
62103;BME280;48077;48.104;11.702;2022-10-16T03:18:57;95578.13;;;9.86;100.00
62103;BME280;48077;48.104;11.702;2022-10-16T03:21:20;95575.69;;;9.84;100.00
62103;BME280;48077;48.104;11.702;2022-10-16T03:23:44;95574.09;;;9.83;100.00
62103;BME280;48077;48.104;11.702;2022-10-16T03:26:07;95568.47;;;9.73;100.00
62103;BME280;48077;48.104;11.702;2022-10-16T03:28:30;95584.47;;;9.73;100.00
62103;BME280;48077;48.104;11.702;2022-10-16T03:30:54;95578.53;;;9.71;100.00
62103;BME280;48077;48.104;11.702;2022-10-16T03:33:17;95585.09;;;9.68;100.00
62103;BME280;48077;48.104;11.702;2022-10-16T03:35:40;95591.03;;;9.70;100.00
62103;BME280;48077;48.104;11.702;2022-10-16T03:38:04;95589.84;;;9.66;100.00
62103;BME280;48077;48.104;11.702;2022-10-16T03:40:27;95592.75;;;9.65;100.00
62103;BME280;48077;48.104;11.702;2022-10-16T03:42:51;95589.13;;;9.59;100.00
62103;BME280;48077;48.104;11.702;2022-10-16T03:45:14;95584.47;;;9.55;100.00
62103;BME280;48077;48.104;11.702;2022-10-16T03:47:37;95590.31;;;9.63;100.00
62103;BME280;48077;48.104;11.702;2022-10-16T03:50:01;95589.25;;;9.64;100.00
62103;BME280;48077;48.104;11.702;2022-10-16T03:52:24;95607.84;;;9.71;100.00
62103;BME280;48077;48.104;11.702;2022-10-16T03:54:48;95602.28;;;9.72;100.00
62103;BME280;48077;48.104;11.702;2022-10-16T03:57:11;95608.34;;;9.80;100.00
62103;BME280;48077;48.104;11.702;2022-10-16T03:59:34;95610.69;;;9.88;100.00
62103;BME280;48077;48.104;11.702;2022-10-16T04:01:58;95612.53;;;9.87;100.00
62103;BME280;48077;48.104;11.702;2022-10-16T04:04:21;95609.44;;;9.90;100.00
62103;BME280;48077;48.104;11.702;2022-10-16T04:06:45;95604.91;;;9.91;100.00
62103;BME280;48077;48.104;11.702;2022-10-16T04:09:08;95596.31;;;9.89;100.00
62103;BME280;48077;48.104;11.702;2022-10-16T04:11:31;95599.94;;;9.95;100.00
62103;BME280;48077;48.104;11.702;2022-10-16T04:13:55;95599.94;;;9.95;100.00
62103;BME280;48077;48.104;11.702;2022-10-16T04:16:18;95593.81;;;9.94;100.00
62103;BME280;48077;48.104;11.702;2022-10-16T04:18:41;95593.50;;;10.02;100.00
62103;BME280;48077;48.104;11.702;2022-10-16T04:21:06;95596.97;;;10.03;100.00
62103;BME280;48077;48.104;11.702;2022-10-16T04:23:29;95596.88;;;10.09;100.00
62103;BME280;48077;48.104;11.702;2022-10-16T04:25:52;95582.72;;;10.09;100.00
62103;BME280;48077;48.104;11.702;2022-10-16T04:28:16;95579.59;;;10.12;100.00
62103;BME280;48077;48.104;11.702;2022-10-16T04:30:42;95595.84;;;10.22;100.00
62103;BME280;48077;48.104;11.702;2022-10-16T04:33:05;95608.97;;;10.24;100.00
62103;BME280;48077;48.104;11.702;2022-10-16T04:35:28;95608.09;;;10.30;100.00
62103;BME280;48077;48.104;11.702;2022-10-16T04:37:52;95606.81;;;10.32;100.00
62103;BME280;48077;48.104;11.702;2022-10-16T04:40:15;95598.41;;;10.29;100.00
62103;BME280;48077;48.104;11.702;2022-10-16T04:42:39;95616.19;;;10.35;100.00
62103;BME280;48077;48.104;11.702;2022-10-16T04:45:04;95608.78;;;10.37;100.00
62103;BME280;48077;48.104;11.702;2022-10-16T04:47:27;95605.09;;;10.38;100.00
62103;BME280;48077;48.104;11.702;2022-10-16T04:49:51;95580.81;;;10.28;100.00
62103;BME280;48077;48.104;11.702;2022-10-16T04:52:15;95596.16;;;10.32;100.00
62103;BME280;48077;48.104;11.702;2022-10-16T04:54:38;95599.53;;;10.40;100.00
62103;BME280;48077;48.104;11.702;2022-10-16T04:57:01;95582.00;;;10.32;100.00
62103;BME280;48077;48.104;11.702;2022-10-16T04:59:25;95600.47;;;10.45;100.00
62103;BME280;48077;48.104;11.702;2022-10-16T05:01:48;95582.38;;;10.36;100.00
62103;BME280;48077;48.104;11.702;2022-10-16T05:04:12;95592.72;;;10.44;100.00
62103;BME280;48077;48.104;11.702;2022-10-16T05:06:36;95590.28;;;10.42;100.00
62103;BME280;48077;48.104;11.702;2022-10-16T05:09:00;95596.19;;;10.44;100.00
62103;BME280;48077;48.104;11.702;2022-10-16T05:11:23;95588.63;;;10.41;100.00
62103;BME280;48077;48.104;11.702;2022-10-16T05:13:49;95580.75;;;10.35;100.00
62103;BME280;48077;48.104;11.702;2022-10-16T05:16:12;95603.97;;;10.46;100.00
62103;BME280;48077;48.104;11.702;2022-10-16T05:18:35;95591.53;;;10.40;100.00
62103;BME280;48077;48.104;11.702;2022-10-16T05:20:59;95585.53;;;10.44;100.00
62103;BME280;48077;48.104;11.702;2022-10-16T05:23:22;95591.31;;;10.53;100.00
62103;BME280;48077;48.104;11.702;2022-10-16T05:25:56;95592.94;;;10.54;100.00
62103;BME280;48077;48.104;11.702;2022-10-16T05:28:21;95585.19;;;10.52;100.00
62103;BME280;48077;48.104;11.702;2022-10-16T05:30:44;95593.50;;;10.56;100.00
62103;BME280;48077;48.104;11.702;2022-10-16T05:33:08;95588.28;;;10.49;100.00
62103;BME280;48077;48.104;11.702;2022-10-16T05:35:31;95594.78;;;10.53;100.00
62103;BME280;48077;48.104;11.702;2022-10-16T05:37:55;95608.72;;;10.56;100.00
62103;BME280;48077;48.104;11.702;2022-10-16T05:40:18;95620.19;;;10.56;100.00
62103;BME280;48077;48.104;11.702;2022-10-16T05:42:41;95603.84;;;10.52;100.00
62103;BME280;48077;48.104;11.702;2022-10-16T05:45:06;95607.44;;;10.58;100.00
62103;BME280;48077;48.104;11.702;2022-10-16T05:47:29;95613.59;;;10.59;100.00
62103;BME280;48077;48.104;11.702;2022-10-16T05:49:53;95611.28;;;10.50;100.00
62103;BME280;48077;48.104;11.702;2022-10-16T05:52:16;95629.34;;;10.60;100.00
62103;BME280;48077;48.104;11.702;2022-10-16T05:54:40;95616.50;;;10.57;100.00
62103;BME280;48077;48.104;11.702;2022-10-16T05:57:03;95630.53;;;10.64;100.00
62103;BME280;48077;48.104;11.702;2022-10-16T05:59:28;95643.41;;;10.67;100.00
62103;BME280;48077;48.104;11.702;2022-10-16T06:01:52;95641.78;;;10.66;100.00
62103;BME280;48077;48.104;11.702;2022-10-16T06:04:16;95643.84;;;10.64;100.00
62103;BME280;48077;48.104;11.702;2022-10-16T06:06:40;95643.97;;;10.58;100.00
62103;BME280;48077;48.104;11.702;2022-10-16T06:09:03;95640.03;;;10.60;100.00
62103;BME280;48077;48.104;11.702;2022-10-16T06:11:29;95655.59;;;10.63;100.00
62103;BME280;48077;48.104;11.702;2022-10-16T06:13:54;95642.25;;;10.63;100.00
62103;BME280;48077;48.104;11.702;2022-10-16T06:16:19;95654.09;;;10.67;100.00
62103;BME280;48077;48.104;11.702;2022-10-16T06:18:43;95641.19;;;10.64;100.00
62103;BME280;48077;48.104;11.702;2022-10-16T06:21:12;95644.59;;;10.71;100.00
62103;BME280;48077;48.104;11.702;2022-10-16T06:23:36;95651.78;;;10.71;100.00
62103;BME280;48077;48.104;11.702;2022-10-16T06:26:11;95652.47;;;10.78;100.00
62103;BME280;48077;48.104;11.702;2022-10-16T06:28:35;95657.38;;;10.81;100.00
62103;BME280;48077;48.104;11.702;2022-10-16T06:30:59;95655.84;;;10.85;100.00
62103;BME280;48077;48.104;11.702;2022-10-16T06:33:23;95657.84;;;10.90;100.00
62103;BME280;48077;48.104;11.702;2022-10-16T06:35:46;95656.34;;;10.94;100.00
62103;BME280;48077;48.104;11.702;2022-10-16T06:38:10;95657.50;;;10.98;100.00
62103;BME280;48077;48.104;11.702;2022-10-16T06:40:33;95665.63;;;11.03;100.00
62103;BME280;48077;48.104;11.702;2022-10-16T06:42:56;95657.59;;;11.03;100.00
62103;BME280;48077;48.104;11.702;2022-10-16T06:45:20;95668.16;;;11.10;100.00
62103;BME280;48077;48.104;11.702;2022-10-16T06:47:43;95677.13;;;11.16;100.00
62103;BME280;48077;48.104;11.702;2022-10-16T06:50:07;95676.63;;;11.19;100.00
62103;BME280;48077;48.104;11.702;2022-10-16T06:52:30;95681.75;;;11.20;100.00
62103;BME280;48077;48.104;11.702;2022-10-16T06:54:54;95685.59;;;11.24;100.00
62103;BME280;48077;48.104;11.702;2022-10-16T06:57:17;95686.97;;;11.27;100.00
62103;BME280;48077;48.104;11.702;2022-10-16T06:59:40;95681.63;;;11.27;100.00
62103;BME280;48077;48.104;11.702;2022-10-16T07:02:04;95691.88;;;11.30;100.00
62103;BME280;48077;48.104;11.702;2022-10-16T07:04:27;95678.38;;;11.25;100.00
62103;BME280;48077;48.104;11.702;2022-10-16T07:06:51;95688.03;;;11.26;100.00
62103;BME280;48077;48.104;11.702;2022-10-16T07:09:14;95693.94;;;11.28;100.00
62103;BME280;48077;48.104;11.702;2022-10-16T07:11:39;95692.31;;;11.27;100.00
62103;BME280;48077;48.104;11.702;2022-10-16T07:14:03;95689.78;;;11.32;100.00
62103;BME280;48077;48.104;11.702;2022-10-16T07:16:29;95685.38;;;11.26;100.00
62103;BME280;48077;48.104;11.702;2022-10-16T07:18:54;95707.66;;;11.43;100.00
62103;BME280;48077;48.104;11.702;2022-10-16T07:21:21;95703.72;;;11.46;100.00
62103;BME280;48077;48.104;11.702;2022-10-16T07:23:49;95717.75;;;11.53;100.00
62103;BME280;48077;48.104;11.702;2022-10-16T07:26:13;95706.59;;;11.56;100.00
62103;BME280;48077;48.104;11.702;2022-10-16T07:28:38;95714.25;;;11.64;100.00
62103;BME280;48077;48.104;11.702;2022-10-16T07:31:04;95720.97;;;11.79;100.00
62103;BME280;48077;48.104;11.702;2022-10-16T07:33:29;95706.09;;;11.83;100.00
62103;BME280;48077;48.104;11.702;2022-10-16T07:35:53;95702.88;;;11.92;100.00
62103;BME280;48077;48.104;11.702;2022-10-16T07:38:17;95724.75;;;12.18;100.00
62103;BME280;48077;48.104;11.702;2022-10-16T07:40:41;95724.25;;;12.33;100.00
62103;BME280;48077;48.104;11.702;2022-10-16T07:43:04;95711.72;;;12.33;100.00
62103;BME280;48077;48.104;11.702;2022-10-16T07:45:28;95731.94;;;12.58;100.00
62103;BME280;48077;48.104;11.702;2022-10-16T07:47:51;95733.19;;;12.67;100.00
62103;BME280;48077;48.104;11.702;2022-10-16T07:50:15;95743.88;;;12.79;100.00
62103;BME280;48077;48.104;11.702;2022-10-16T07:52:38;95744.84;;;12.90;100.00
62103;BME280;48077;48.104;11.702;2022-10-16T07:55:02;95738.03;;;12.99;100.00
62103;BME280;48077;48.104;11.702;2022-10-16T07:57:26;95730.00;;;12.99;100.00
62103;BME280;48077;48.104;11.702;2022-10-16T07:59:49;95748.13;;;13.26;100.00
62103;BME280;48077;48.104;11.702;2022-10-16T08:02:13;95745.81;;;13.29;100.00
62103;BME280;48077;48.104;11.702;2022-10-16T08:04:36;95761.63;;;13.48;100.00
62103;BME280;48077;48.104;11.702;2022-10-16T08:06:59;95758.06;;;13.59;100.00
62103;BME280;48077;48.104;11.702;2022-10-16T08:09:23;95756.56;;;13.68;100.00
62103;BME280;48077;48.104;11.702;2022-10-16T08:11:46;95752.91;;;13.74;100.00
62103;BME280;48077;48.104;11.702;2022-10-16T08:14:09;95746.09;;;13.84;100.00
62103;BME280;48077;48.104;11.702;2022-10-16T08:16:33;95755.06;;;13.94;100.00
62103;BME280;48077;48.104;11.702;2022-10-16T08:18:56;95750.84;;;13.99;100.00
62103;BME280;48077;48.104;11.702;2022-10-16T08:21:21;95757.53;;;14.18;100.00
62103;BME280;48077;48.104;11.702;2022-10-16T08:23:46;95765.47;;;14.30;100.00
62103;BME280;48077;48.104;11.702;2022-10-16T08:26:09;95762.66;;;14.42;100.00
62103;BME280;48077;48.104;11.702;2022-10-16T08:28:33;95764.97;;;14.55;100.00
62103;BME280;48077;48.104;11.702;2022-10-16T08:31:06;95756.53;;;14.68;100.00
62103;BME280;48077;48.104;11.702;2022-10-16T08:33:30;95763.44;;;14.86;100.00
62103;BME280;48077;48.104;11.702;2022-10-16T08:35:53;95767.34;;;15.01;98.99
62103;BME280;48077;48.104;11.702;2022-10-16T08:38:17;95768.28;;;15.16;98.67
62103;BME280;48077;48.104;11.702;2022-10-16T08:40:42;95757.38;;;15.28;97.73
62103;BME280;48077;48.104;11.702;2022-10-16T08:43:30;95781.75;;;15.49;96.06
62103;BME280;48077;48.104;11.702;2022-10-16T08:46:20;95779.72;;;15.66;94.61
62103;BME280;48077;48.104;11.702;2022-10-16T08:48:47;95767.38;;;15.70;94.38
62103;BME280;48077;48.104;11.702;2022-10-16T08:51:23;95778.84;;;15.88;93.24
62103;BME280;48077;48.104;11.702;2022-10-16T08:53:56;95776.25;;;16.03;90.67
62103;BME280;48077;48.104;11.702;2022-10-16T08:56:21;95780.66;;;16.19;90.14
62103;BME280;48077;48.104;11.702;2022-10-16T08:58:47;95786.09;;;16.35;89.16
62103;BME280;48077;48.104;11.702;2022-10-16T09:01:14;95781.84;;;16.49;88.31
62103;BME280;48077;48.104;11.702;2022-10-16T09:06:46;95787.13;;;16.82;86.27
62103;BME280;48077;48.104;11.702;2022-10-16T09:23:00;95793.44;;;17.49;82.34
62103;BME280;48077;48.104;11.702;2022-10-16T09:25:32;95794.25;;;17.59;81.25
62103;BME280;48077;48.104;11.702;2022-10-16T09:27:56;95782.66;;;17.69;80.35
62103;BME280;48077;48.104;11.702;2022-10-16T09:30:21;95793.72;;;17.83;80.22
62103;BME280;48077;48.104;11.702;2022-10-16T09:32:48;95802.34;;;18.06;78.56
62103;BME280;48077;48.104;11.702;2022-10-16T09:35:16;95795.81;;;18.22;76.80
62103;BME280;48077;48.104;11.702;2022-10-16T09:37:42;95791.22;;;18.33;75.34
62103;BME280;48077;48.104;11.702;2022-10-16T09:40:06;95794.94;;;18.47;75.06
62103;BME280;48077;48.104;11.702;2022-10-16T09:42:34;95801.13;;;18.63;74.11
62103;BME280;48077;48.104;11.702;2022-10-16T09:44:58;95806.72;;;18.77;73.94
62103;BME280;48077;48.104;11.702;2022-10-16T09:47:26;95796.72;;;18.88;73.83
62103;BME280;48077;48.104;11.702;2022-10-16T09:49:54;95798.75;;;19.11;70.15
62103;BME280;48077;48.104;11.702;2022-10-16T09:52:19;95797.56;;;19.28;70.34
62103;BME280;48077;48.104;11.702;2022-10-16T09:54:57;95801.47;;;19.46;69.73
62103;BME280;48077;48.104;11.702;2022-10-16T09:57:21;95794.88;;;19.62;67.87
62103;BME280;48077;48.104;11.702;2022-10-16T09:59:53;95793.97;;;19.77;66.74
62103;BME280;48077;48.104;11.702;2022-10-16T10:02:20;95810.28;;;20.01;66.63
62103;BME280;48077;48.104;11.702;2022-10-16T10:04:51;95810.72;;;20.13;64.90
62103;BME280;48077;48.104;11.702;2022-10-16T10:07:21;95801.91;;;20.27;63.64
62103;BME280;48077;48.104;11.702;2022-10-16T10:09:47;95811.97;;;20.50;61.28
62103;BME280;48077;48.104;11.702;2022-10-16T10:12:36;95817.91;;;20.76;60.03
62103;BME280;48077;48.104;11.702;2022-10-16T10:15:10;95808.06;;;20.86;60.93
62103;BME280;48077;48.104;11.702;2022-10-16T10:17:45;95813.69;;;21.08;60.20
62103;BME280;48077;48.104;11.702;2022-10-16T10:20:28;95812.63;;;21.28;58.51
62103;BME280;48077;48.104;11.702;2022-10-16T10:22:52;95807.22;;;21.47;58.11
62103;BME280;48077;48.104;11.702;2022-10-16T10:25:42;95804.19;;;21.68;56.31
62103;BME280;48077;48.104;11.702;2022-10-16T10:31:03;95807.44;;;22.02;57.28
62103;BME280;48077;48.104;11.702;2022-10-16T10:36:29;95806.59;;;22.35;55.26
62103;BME280;48077;48.104;11.702;2022-10-16T10:39:02;95800.69;;;22.47;54.73
62103;BME280;48077;48.104;11.702;2022-10-16T10:44:29;95799.78;;;22.65;54.05
62103;BME280;48077;48.104;11.702;2022-10-16T11:01:03;95805.72;;;23.45;45.75
62103;BME280;48077;48.104;11.702;2022-10-16T11:06:23;95810.25;;;23.86;46.55
62103;BME280;48077;48.104;11.702;2022-10-16T11:08:58;95801.81;;;23.96;46.07
62103;BME280;48077;48.104;11.702;2022-10-16T11:11:34;95793.41;;;24.07;44.40
62103;BME280;48077;48.104;11.702;2022-10-16T11:14:02;95812.25;;;24.26;43.88
62103;BME280;48077;48.104;11.702;2022-10-16T11:16:39;95809.84;;;24.24;41.07
62103;BME280;48077;48.104;11.702;2022-10-16T11:19:27;95798.47;;;24.31;41.79
62103;BME280;48077;48.104;11.702;2022-10-16T11:22:12;95808.38;;;24.49;40.55
62103;BME280;48077;48.104;11.702;2022-10-16T11:27:40;95793.88;;;24.71;39.00
62103;BME280;48077;48.104;11.702;2022-10-16T11:30:16;95791.88;;;24.94;39.87
62103;BME280;48077;48.104;11.702;2022-10-16T11:32:52;95800.44;;;25.19;39.73
62103;BME280;48077;48.104;11.702;2022-10-16T11:35:22;95793.06;;;25.37;39.73
62103;BME280;48077;48.104;11.702;2022-10-16T11:37:48;95796.44;;;25.42;39.59
62103;BME280;48077;48.104;11.702;2022-10-16T11:40:22;95798.69;;;25.49;38.39
62103;BME280;48077;48.104;11.702;2022-10-16T11:42:51;95795.34;;;25.52;38.04
62103;BME280;48077;48.104;11.702;2022-10-16T11:45:29;95796.59;;;25.29;36.46
62103;BME280;48077;48.104;11.702;2022-10-16T11:48:18;95792.06;;;25.15;36.50
62103;BME280;48077;48.104;11.702;2022-10-16T11:50:50;95781.25;;;24.93;37.93
62103;BME280;48077;48.104;11.702;2022-10-16T11:55:53;95790.41;;;24.17;40.10
62103;BME280;48077;48.104;11.702;2022-10-16T11:58:24;95767.19;;;23.74;40.92
62103;BME280;48077;48.104;11.702;2022-10-16T12:09:21;95797.75;;;22.98;42.67
62103;BME280;48077;48.104;11.702;2022-10-16T12:11:47;95785.78;;;22.86;42.68
62103;BME280;48077;48.104;11.702;2022-10-16T12:16:33;95783.84;;;23.14;41.83
62103;BME280;48077;48.104;11.702;2022-10-16T12:19:24;95789.19;;;23.41;40.40
62103;BME280;48077;48.104;11.702;2022-10-16T12:21:50;95786.34;;;23.60;40.77
62103;BME280;48077;48.104;11.702;2022-10-16T12:24:39;95783.13;;;23.81;41.27
62103;BME280;48077;48.104;11.702;2022-10-16T12:27:19;95783.47;;;23.79;42.18
62103;BME280;48077;48.104;11.702;2022-10-16T12:29:44;95781.06;;;23.64;41.09
62103;BME280;48077;48.104;11.702;2022-10-16T12:34:52;95784.84;;;23.18;41.08
62103;BME280;48077;48.104;11.702;2022-10-16T12:37:28;95794.53;;;22.96;41.22
62103;BME280;48077;48.104;11.702;2022-10-16T12:39:55;95772.50;;;22.70;42.16
62103;BME280;48077;48.104;11.702;2022-10-16T12:44:49;95783.47;;;22.37;42.73
62103;BME280;48077;48.104;11.702;2022-10-16T12:47:47;95773.97;;;22.21;42.50
62103;BME280;48077;48.104;11.702;2022-10-16T12:52:49;95786.63;;;22.12;42.09
62103;BME280;48077;48.104;11.702;2022-10-16T12:55:17;95773.16;;;22.07;41.23
62103;BME280;48077;48.104;11.702;2022-10-16T12:57:49;95778.25;;;22.08;41.28
62103;BME280;48077;48.104;11.702;2022-10-16T13:00:29;95779.09;;;22.09;41.51
62103;BME280;48077;48.104;11.702;2022-10-16T13:13:50;95769.81;;;22.56;41.40
62103;BME280;48077;48.104;11.702;2022-10-16T13:22:21;95772.78;;;22.69;42.13
62103;BME280;48077;48.104;11.702;2022-10-16T13:27:05;95778.47;;;22.58;41.75
62103;BME280;48077;48.104;11.702;2022-10-16T13:29:32;95778.75;;;22.57;42.05
62103;BME280;48077;48.104;11.702;2022-10-16T13:31:59;95785.91;;;22.53;42.04
62103;BME280;48077;48.104;11.702;2022-10-16T13:34:24;95791.41;;;22.48;41.88
62103;BME280;48077;48.104;11.702;2022-10-16T13:36:50;95787.31;;;22.50;42.59
62103;BME280;48077;48.104;11.702;2022-10-16T13:39:27;95784.88;;;22.49;42.08
62103;BME280;48077;48.104;11.702;2022-10-16T13:44:23;95779.16;;;22.36;42.02
62103;BME280;48077;48.104;11.702;2022-10-16T13:46:46;95779.03;;;22.28;40.70
62103;BME280;48077;48.104;11.702;2022-10-16T13:49:15;95790.72;;;22.28;41.80
62103;BME280;48077;48.104;11.702;2022-10-16T13:51:39;95793.53;;;22.23;40.99
62103;BME280;48077;48.104;11.702;2022-10-16T13:54:02;95791.47;;;22.15;40.54
62103;BME280;48077;48.104;11.702;2022-10-16T13:56:28;95793.47;;;22.09;40.84
62103;BME280;48077;48.104;11.702;2022-10-16T13:59:20;95799.97;;;21.94;42.54
62103;BME280;48077;48.104;11.702;2022-10-16T14:01:45;95795.28;;;21.81;41.38
62103;BME280;48077;48.104;11.702;2022-10-16T14:04:10;95794.94;;;21.69;41.74
62103;BME280;48077;48.104;11.702;2022-10-16T14:06:36;95792.47;;;21.53;42.25
62103;BME280;48077;48.104;11.702;2022-10-16T14:09:08;95797.69;;;21.50;42.85
62103;BME280;48077;48.104;11.702;2022-10-16T14:11:33;95806.94;;;21.49;42.09
62103;BME280;48077;48.104;11.702;2022-10-16T14:14:00;95807.50;;;21.46;42.91
62103;BME280;48077;48.104;11.702;2022-10-16T14:16:27;95807.34;;;21.37;43.51
62103;BME280;48077;48.104;11.702;2022-10-16T14:19:01;95808.59;;;21.26;45.49
62103;BME280;48077;48.104;11.702;2022-10-16T14:21:25;95805.50;;;21.13;45.86
62103;BME280;48077;48.104;11.702;2022-10-16T14:23:49;95812.16;;;21.02;46.56